Time;durP1;ratioP1;P1;durP2;ratioP2;P2;SDS_P1;SDS_P2;PMS_P1;PMS_P2;Temp;Humidity;BMP_temperature;BMP_pressure;BME280_temperature;BME280_humidity;BME280_pressure;Samples;Min_cycle;Max_cycle;Signal;HPM_P1;HPM_P2
2021/07/14 00:00:12;;;;;;;42.47;22.63;;;;;;;16.41;49.66;99102.22;4811485;29;20042;-79
2021/07/14 00:02:39;;;;;;;29.40;16.38;;;;;;;16.40;49.17;99090.59;4841631;29;20054;-78
2021/07/14 00:05:15;;;;;;;35.60;19.95;;;;;;;16.47;49.90;99101.53;4826447;29;20124;-78
2021/07/14 00:07:41;;;;;;;29.58;18.17;;;;;;;16.35;50.21;99100.16;4811512;29;20050;-78
2021/07/14 00:10:24;;;;;;;21.00;14.38;;;;;;;16.27;50.28;99101.84;4826509;29;20096;-80
2021/07/14 00:23:22;;;;;;;5.97;3.80;;;;;;;15.73;51.51;99112.09;4854644;29;20057;-77
2021/07/14 00:25:48;;;;;;;11.82;6.18;;;;;;;15.69;51.34;99117.97;4825859;29;20446;-79
2021/07/14 00:28:15;;;;;;;17.40;7.28;;;;;;;15.70;51.38;99108.88;4840834;29;20078;-78
2021/07/14 00:30:48;;;;;;;11.18;5.22;;;;;;;15.63;51.29;99108.66;4840822;29;20054;-79
2021/07/14 00:33:14;;;;;;;12.05;6.93;;;;;;;15.71;51.33;99124.88;4826876;29;20049;-77
2021/07/14 00:35:40;;;;;;;14.07;6.00;;;;;;;15.77;51.32;99124.25;4840687;29;20133;-77
2021/07/14 00:38:06;;;;;;;8.02;5.47;;;;;;;15.72;51.59;99123.03;4840616;29;20057;-79
2021/07/14 00:40:32;;;;;;;9.55;5.63;;;;;;;15.73;51.53;99120.19;4825888;29;20385;-77
2021/07/14 00:42:58;;;;;;;10.80;7.80;;;;;;;15.78;51.48;99117.84;4840657;29;20064;-77
2021/07/14 00:45:24;;;;;;;20.92;12.15;;;;;;;15.71;51.69;99106.00;4825319;29;20425;-76
2021/07/14 00:47:53;;;;;;;22.40;12.38;;;;;;;15.85;51.55;99123.44;4825524;29;20516;-77
2021/07/14 00:50:19;;;;;;;24.93;13.97;;;;;;;15.92;51.53;99129.03;4825796;29;20370;-77
2021/07/14 00:52:45;;;;;;;21.90;14.25;;;;;;;16.04;51.39;99130.41;4825429;29;20316;-79
2021/07/14 00:55:11;;;;;;;31.75;16.17;;;;;;;16.11;51.34;99123.38;4825502;29;20050;-78
2021/07/14 00:57:37;;;;;;;34.30;19.88;;;;;;;16.16;51.35;99120.19;4840589;29;20506;-77
2021/07/14 01:00:07;;;;;;;34.35;18.77;;;;;;;16.24;50.97;99129.13;4827109;29;20092;-76
2021/07/14 01:02:33;;;;;;;28.42;18.65;;;;;;;16.26;50.73;99121.72;4803459;29;20049;-82
2021/07/14 01:04:59;;;;;;;39.90;22.40;;;;;;;16.29;50.85;99131.34;4839736;29;20073;-82
2021/07/14 01:07:27;;;;;;;40.72;24.85;;;;;;;16.35;50.85;99135.22;4829986;29;20145;-82
2021/07/14 01:10:24;;;;;;;35.10;20.23;;;;;;;16.42;50.74;99136.25;4826255;29;20045;-82
2021/07/14 01:13:06;;;;;;;31.88;19.38;;;;;;;16.45;50.59;99135.94;4845795;29;20053;-80
2021/07/14 01:15:40;;;;;;;30.30;17.52;;;;;;;16.36;50.96;99132.38;4829446;29;20082;-83
2021/07/14 01:18:13;;;;;;;28.13;17.10;;;;;;;16.37;50.70;99138.63;4830809;29;20198;-80
2021/07/14 01:20:53;;;;;;;27.58;16.40;;;;;;;16.33;51.15;99131.88;4815103;29;20096;-78
2021/07/14 01:23:34;;;;;;;30.95;18.98;;;;;;;16.43;50.70;99143.34;4814733;29;20049;-79
2021/07/14 01:26:09;;;;;;;28.95;16.63;;;;;;;16.43;50.57;99129.84;4845369;29;20068;-80
2021/07/14 01:28:37;;;;;;;28.58;13.60;;;;;;;16.41;50.88;99145.38;4830396;29;20124;-79
2021/07/14 01:31:02;;;;;;;27.85;17.33;;;;;;;16.45;51.10;99149.44;4829404;29;20049;-79
2021/07/14 01:33:31;;;;;;;30.90;19.33;;;;;;;16.48;50.68;99133.75;4843314;29;20540;-79
2021/07/14 01:35:57;;;;;;;31.08;19.23;;;;;;;16.52;50.44;99136.97;4798385;29;20049;-79
2021/07/14 01:38:24;;;;;;;29.42;17.73;;;;;;;16.57;50.75;99145.41;4813305;29;20142;-78
2021/07/14 01:40:50;;;;;;;31.95;18.30;;;;;;;16.62;50.43;99140.34;4798064;29;20045;-78
2021/07/14 01:43:16;;;;;;;35.28;19.63;;;;;;;16.69;50.73;99141.38;4828189;29;20142;-80
2021/07/14 01:45:41;;;;;;;38.33;20.83;;;;;;;16.74;50.55;99135.53;4828154;29;20454;-80
2021/07/14 01:48:09;;;;;;;54.13;27.00;;;;;;;16.81;50.54;99141.06;4828103;29;20052;-79
2021/07/14 01:50:36;;;;;;;46.08;26.95;;;;;;;16.90;50.67;99145.47;4828426;29;20046;-80
2021/07/14 01:53:01;;;;;;;43.47;22.70;;;;;;;16.92;50.65;99148.84;4813260;29;20042;-80
2021/07/14 01:55:28;;;;;;;43.03;23.25;;;;;;;16.81;51.28;99151.88;4813031;29;20082;-80
2021/07/14 01:57:55;;;;;;;54.88;29.38;;;;;;;16.52;52.08;99147.75;4828377;29;20517;-91
2021/07/14 02:00:21;;;;;;;43.30;26.20;;;;;;;16.36;52.74;99147.69;4813300;29;20098;-82
2021/07/14 02:03:17;;;;;;;51.83;25.30;;;;;;;16.35;52.43;99146.03;4802439;29;20141;-81
2021/07/14 02:05:45;;;;;;;51.45;26.50;;;;;;;16.20;53.18;99138.56;4843759;29;20057;-86
2021/07/14 02:08:12;;;;;;;42.33;21.67;;;;;;;16.24;53.08;99137.22;4845117;29;20141;-80
2021/07/14 02:10:38;;;;;;;54.20;25.38;;;;;;;16.31;52.95;99150.06;4831524;29;20045;-87
2021/07/14 02:13:04;;;;;;;56.38;27.80;;;;;;;16.27;53.42;99147.69;4846198;29;20045;-79
2021/07/14 02:15:31;;;;;;;79.43;41.65;;;;;;;16.41;53.17;99143.53;4848196;29;20059;-81
2021/07/14 02:18:17;;;;;;;117.18;51.10;;;;;;;16.51;53.24;99148.75;4862430;29;20049;-82
2021/07/14 02:20:45;;;;;;;84.43;37.85;;;;;;;16.76;53.02;99155.06;4846342;29;20046;-88
2021/07/14 02:23:11;;;;;;;61.87;32.70;;;;;;;16.96;52.54;99158.28;4830626;29;20478;-86
2021/07/14 02:25:38;;;;;;;83.53;36.65;;;;;;;17.17;51.83;99158.63;4846089;29;20069;-80
2021/07/14 02:28:04;;;;;;;75.25;37.92;;;;;;;17.40;51.34;99153.38;4861583;29;20101;-81
2021/07/14 02:30:30;;;;;;;84.47;40.85;;;;;;;17.59;51.12;99160.28;4861831;29;20409;-82
2021/07/14 02:32:58;;;;;;;88.13;41.83;;;;;;;17.78;50.79;99152.81;4830658;29;20077;-77
2021/07/14 02:35:24;;;;;;;89.38;44.72;;;;;;;17.90;50.13;99146.00;4861158;29;20054;-78
2021/07/14 02:37:52;;;;;;;102.10;50.70;;;;;;;17.93;49.98;99137.56;4846693;29;20495;-87
2021/07/14 02:40:29;;;;;;;114.90;52.13;;;;;;;18.00;50.28;99154.78;4846528;29;20059;-79
2021/07/14 02:42:58;;;;;;;109.28;50.90;;;;;;;18.20;49.80;99149.78;4861448;29;20531;-82
2021/07/14 02:45:27;;;;;;;109.47;50.22;;;;;;;18.42;49.52;99154.41;4844945;29;20164;-81
2021/07/14 02:47:53;;;;;;;107.38;49.42;;;;;;;18.61;48.78;99152.25;4860878;29;20104;-77
2021/07/14 02:50:23;;;;;;;100.38;43.90;;;;;;;18.78;48.47;99155.75;4861707;29;20525;-76
2021/07/14 02:52:51;;;;;;;87.05;39.55;;;;;;;18.94;47.98;99152.91;4830456;29;20057;-81
2021/07/14 02:55:21;;;;;;;86.28;38.40;;;;;;;19.06;47.34;99145.19;4830757;29;20132;-79
2021/07/14 02:57:52;;;;;;;80.20;37.97;;;;;;;19.22;47.35;99160.47;4827990;29;20501;-77
2021/07/14 03:00:19;;;;;;;69.70;33.08;;;;;;;19.39;46.79;99162.03;4843508;29;20429;-78
2021/07/14 03:02:46;;;;;;;60.70;26.65;;;;;;;19.51;46.52;99165.97;4827872;29;20049;-79
2021/07/14 03:05:12;;;;;;;57.80;23.30;;;;;;;19.59;46.35;99163.16;4858353;29;20080;-79
2021/07/14 03:07:38;;;;;;;60.10;22.80;;;;;;;19.72;46.11;99162.56;4812730;29;20171;-78
2021/07/14 03:10:05;;;;;;;41.08;20.40;;;;;;;19.82;45.80;99152.28;4830112;29;20071;-79
2021/07/14 03:12:31;;;;;;;49.28;21.77;;;;;;;20.00;45.54;99154.59;4829672;29;20048;-79
2021/07/14 03:14:59;;;;;;;37.72;19.88;;;;;;;20.09;45.15;99145.34;4845201;29;20049;-79
2021/07/14 03:17:27;;;;;;;33.45;17.33;;;;;;;20.29;44.51;99171.91;4830023;29;20101;-75
2021/07/14 03:19:53;;;;;;;22.70;12.10;;;;;;;20.36;44.02;99153.84;4830079;29;20076;-77
2021/07/14 03:22:20;;;;;;;33.80;13.50;;;;;;;20.40;43.96;99149.69;4830045;29;20081;-77
2021/07/14 03:24:46;;;;;;;21.63;10.40;;;;;;;20.51;43.27;99151.13;4844863;29;20608;-78
2021/07/14 03:27:12;;;;;;;28.48;10.40;;;;;;;20.39;43.08;99158.88;4845071;29;20473;-78
2021/07/14 03:29:39;;;;;;;28.38;9.00;;;;;;;20.49;43.25;99148.56;4829707;29;20057;-79
2021/07/14 03:32:05;;;;;;;65.20;9.43;;;;;;;20.50;42.61;99146.72;4829550;29;20081;-79
2021/07/14 03:34:31;;;;;;;22.73;8.13;;;;;;;20.52;42.78;99153.63;4829608;29;20081;-78
2021/07/14 03:37:03;;;;;;;26.20;8.07;;;;;;;20.49;42.51;99143.13;4845119;29;20473;-78
2021/07/14 03:39:29;;;;;;;12.32;6.15;;;;;;;20.47;41.87;99147.91;4846498;29;20053;-87
2021/07/14 03:41:54;;;;;;;15.57;6.38;;;;;;;20.36;42.59;99159.25;4830220;29;20128;-80
2021/07/14 03:44:20;;;;;;;15.40;7.00;;;;;;;20.42;42.87;99163.06;4830084;29;20045;-80
2021/07/14 03:46:46;;;;;;;21.58;7.85;;;;;;;20.29;43.99;99158.34;4859930;29;20086;-80
2021/07/14 03:49:13;;;;;;;11.80;6.85;;;;;;;20.46;43.56;99148.09;4830297;29;20116;-79
2021/07/14 03:51:41;;;;;;;17.83;5.82;;;;;;;20.56;42.77;99154.09;4829935;29;20049;-79
2021/07/14 03:54:07;;;;;;;10.70;5.50;;;;;;;20.71;42.49;99156.75;4829510;29;20053;-79
2021/07/14 03:56:33;;;;;;;12.18;5.32;;;;;;;20.62;42.52;99164.19;4829632;29;20113;-78
2021/07/14 03:58:59;;;;;;;13.30;5.85;;;;;;;20.69;42.55;99169.72;4860906;29;20057;-80
2021/07/14 04:01:25;;;;;;;10.93;6.68;;;;;;;20.61;43.27;99168.78;4829806;29;20068;-79
2021/07/14 04:03:52;;;;;;;18.38;7.57;;;;;;;20.55;43.31;99157.84;4859891;29;20079;-79
2021/07/14 04:06:18;;;;;;;13.38;7.82;;;;;;;20.73;42.92;99171.00;4844948;29;20053;-82
2021/07/14 04:08:45;;;;;;;12.10;7.03;;;;;;;20.76;43.02;99165.16;4844859;29;20098;-83
2021/07/14 04:11:14;;;;;;;11.95;6.35;;;;;;;20.90;41.50;99169.69;4829285;29;20441;-79
2021/07/14 04:13:41;;;;;;;10.73;6.28;;;;;;;21.05;41.87;99165.03;4829241;29;20084;-76
2021/07/14 04:16:07;;;;;;;14.93;5.47;;;;;;;21.07;41.69;99163.00;4830093;29;20078;-82
2021/07/14 04:18:33;;;;;;;9.32;5.22;;;;;;;21.34;41.81;99163.25;4846721;29;20049;-76
2021/07/14 04:20:59;;;;;;;11.50;6.57;;;;;;;21.38;40.29;99169.13;4861166;29;20140;-77
2021/07/14 04:23:26;;;;;;;13.52;5.57;;;;;;;21.41;39.81;99169.59;4844319;29;20045;-75
2021/07/14 04:25:52;;;;;;;10.13;4.72;;;;;;;21.55;39.64;99170.50;4829229;29;20073;-77
2021/07/14 04:28:18;;;;;;;6.97;3.53;;;;;;;21.57;38.53;99169.28;4829554;29;20165;-74
2021/07/14 04:30:44;;;;;;;6.28;3.83;;;;;;;21.62;38.37;99165.13;4829642;29;20128;-75
2021/07/14 04:33:11;;;;;;;5.13;3.53;;;;;;;21.77;38.71;99174.03;4843961;29;20136;-75
2021/07/14 04:35:39;;;;;;;5.60;3.92;;;;;;;21.73;38.68;99165.41;4859536;29;20143;-75
2021/07/14 04:38:06;;;;;;;6.05;3.83;;;;;;;22.00;38.74;99168.31;4829197;29;20092;-74
2021/07/14 04:40:32;;;;;;;8.73;4.03;;;;;;;22.10;38.68;99157.06;4843468;29;20050;-74
2021/07/14 04:42:58;;;;;;;8.57;3.58;;;;;;;22.23;38.21;99165.34;4853789;29;20060;-75
2021/07/14 04:45:24;;;;;;;9.38;3.70;;;;;;;22.21;38.37;99159.25;4825022;29;20502;-75
2021/07/14 04:47:50;;;;;;;9.05;4.25;;;;;;;22.27;38.90;99169.34;4810417;29;20052;-75
2021/07/14 04:50:16;;;;;;;5.97;3.90;;;;;;;22.44;38.09;99167.91;4841512;29;20077;-74
2021/07/14 04:52:42;;;;;;;10.18;3.90;;;;;;;22.60;38.15;99146.81;4848815;29;20069;-75
2021/07/14 04:55:09;;;;;;;16.00;3.60;;;;;;;22.79;37.60;99146.00;4866640;29;20037;-74
2021/07/14 04:57:35;;;;;;;8.13;3.42;;;;;;;23.02;37.52;99145.69;4843354;29;20069;-75
2021/07/14 05:00:02;;;;;;;12.73;3.97;;;;;;;23.10;36.85;99159.13;4843716;29;20132;-74
2021/07/14 05:02:28;;;;;;;5.32;3.15;;;;;;;23.05;36.72;99134.34;4843887;29;20046;-74
2021/07/14 05:04:54;;;;;;;6.68;3.17;;;;;;;23.26;36.20;99155.97;4844073;29;20073;-75
2021/07/14 05:07:20;;;;;;;12.32;4.78;;;;;;;23.19;36.45;99144.22;4844044;29;20420;-74
2021/07/14 05:09:46;;;;;;;6.30;3.65;;;;;;;23.18;36.60;99155.34;4843595;29;20055;-78
2021/07/14 05:12:12;;;;;;;11.18;3.08;;;;;;;23.18;36.82;99149.91;4858536;29;20053;-74
2021/07/14 05:14:37;;;;;;;5.60;3.60;;;;;;;23.13;36.86;99144.22;4859952;29;20404;-74
2021/07/14 05:17:03;;;;;;;8.73;3.53;;;;;;;23.41;36.91;99135.84;4858646;29;20580;-72
2021/07/14 05:19:29;;;;;;;6.13;3.22;;;;;;;23.49;36.65;99138.34;4858513;29;20144;-74
2021/07/14 05:21:56;;;;;;;16.67;3.20;;;;;;;23.51;36.20;99134.38;4858569;29;20505;-72
2021/07/14 05:24:21;;;;;;;11.98;3.20;;;;;;;23.49;36.02;99141.06;4874092;29;20117;-72
2021/07/14 05:26:47;;;;;;;4.28;3.20;;;;;;;23.21;35.87;99130.41;4859684;29;20059;-73
2021/07/14 05:29:13;;;;;;;6.28;3.63;;;;;;;23.18;36.49;99128.09;4873966;29;20045;-74
2021/07/14 05:31:39;;;;;;;9.60;3.75;;;;;;;23.39;36.45;99125.13;4873921;29;20056;-74
2021/07/14 05:34:05;;;;;;;15.65;3.17;;;;;;;23.58;36.75;99133.50;4843095;29;20050;-72
2021/07/14 05:36:31;;;;;;;5.82;2.97;;;;;;;23.80;36.00;99143.16;4859039;29;20058;-73
2021/07/14 05:38:58;;;;;;;8.13;3.50;;;;;;;23.71;35.88;99138.97;4858944;29;20057;-73
2021/07/14 05:41:26;;;;;;;;;;;;;;;23.86;35.72;99125.94;4858925;29;20527;-74
2021/07/14 05:43:51;;;;;;;8.02;2.83;;;;;;;24.17;35.09;99132.53;4858775;29;19924;-75
2021/07/14 05:46:20;;;;;;;5.88;2.80;;;;;;;24.41;34.72;99123.66;4858660;29;20045;-76
2021/07/14 05:48:46;;;;;;;4.05;2.70;;;;;;;24.08;34.32;99133.84;4874316;29;20077;-74
2021/07/14 05:51:12;;;;;;;10.73;3.03;;;;;;;24.18;34.08;99128.75;4857998;29;20457;-73
2021/07/14 05:53:37;;;;;;;7.22;2.70;;;;;;;24.49;33.54;99135.41;4873674;29;20524;-74
2021/07/14 05:56:05;;;;;;;6.72;3.25;;;;;;;24.34;34.34;99117.34;4873761;29;20497;-75
2021/07/14 05:58:30;;;;;;;5.63;2.70;;;;;;;24.47;33.59;99130.97;4892095;29;20053;-73
2021/07/14 06:00:56;;;;;;;5.43;2.90;;;;;;;24.69;33.70;99119.72;4861753;29;20064;-75
2021/07/14 06:03:22;;;;;;;3.20;2.90;;;;;;;24.70;33.05;99121.38;4877024;29;20049;-75
2021/07/14 06:05:48;;;;;;;5.70;2.70;;;;;;;24.80;32.11;99108.09;4860785;29;20658;-77
2021/07/14 06:08:14;;;;;;;4.30;2.58;;;;;;;25.10;32.69;99115.69;4830156;29;20517;-74
2021/07/14 06:10:40;;;;;;;5.72;3.22;;;;;;;25.30;31.96;99113.59;4830429;29;20045;-75
2021/07/14 06:13:06;;;;;;;10.70;2.92;;;;;;;25.37;32.43;99116.28;4815919;29;20080;-74
2021/07/14 06:15:32;;;;;;;7.90;2.97;;;;;;;25.47;32.13;99104.84;4845798;29;20085;-74
2021/07/14 06:17:58;;;;;;;5.82;2.50;;;;;;;25.82;31.24;99102.41;4861619;29;20064;-73
2021/07/14 06:20:24;;;;;;;4.80;2.67;;;;;;;26.11;30.51;99098.06;4815170;29;20402;-73
2021/07/14 06:22:50;;;;;;;4.45;2.60;;;;;;;26.60;30.10;99101.66;4845208;29;20055;-73
2021/07/14 06:25:16;;;;;;;4.70;2.50;;;;;;;26.21;29.47;99092.88;4845678;29;20068;-73
2021/07/14 06:27:42;;;;;;;5.05;2.50;;;;;;;26.43;29.95;99108.81;4830681;29;20049;-74
2021/07/14 06:30:09;;;;;;;6.07;2.30;;;;;;;26.46;27.12;99098.28;4830711;29;20049;-73
2021/07/14 06:32:38;;;;;;;5.53;2.17;;;;;;;26.33;27.00;99098.44;4845970;29;20045;-73
2021/07/14 06:35:05;;;;;;;5.50;2.10;;;;;;;26.20;26.73;99088.47;4845027;29;20063;-73
2021/07/14 06:37:31;;;;;;;2.03;1.70;;;;;;;25.79;25.82;99087.25;4814229;29;20068;-74
2021/07/14 06:39:57;;;;;;;3.92;1.95;;;;;;;25.68;26.35;99086.06;4845678;29;20517;-73
2021/07/14 06:42:23;;;;;;;11.00;2.72;;;;;;;25.68;26.31;99090.72;4845507;29;20037;-73
2021/07/14 06:44:49;;;;;;;4.93;2.05;;;;;;;25.46;26.09;99087.56;4860751;29;20143;-74
2021/07/14 06:47:16;;;;;;;5.07;2.15;;;;;;;25.64;26.70;99078.56;4830295;29;20413;-74
2021/07/14 06:49:42;;;;;;;2.70;1.60;;;;;;;25.94;25.68;99094.25;4844989;29;20065;-73
2021/07/14 06:52:08;;;;;;;3.97;1.92;;;;;;;25.90;25.68;99097.47;4861825;29;20054;-73
2021/07/14 06:54:38;;;;;;;3.45;1.77;;;;;;;25.61;26.53;99092.69;4860965;29;20055;-72
2021/07/14 06:57:05;;;;;;;3.58;1.90;;;;;;;25.95;26.82;99071.28;4830957;29;20050;-73
2021/07/14 06:59:31;;;;;;;4.38;1.90;;;;;;;26.52;26.54;99063.63;4830123;29;20046;-75
2021/07/14 07:02:01;;;;;;;3.00;1.63;;;;;;;27.08;26.42;99076.00;4829958;29;20114;-75
2021/07/14 07:04:28;;;;;;;4.43;1.98;;;;;;;27.48;25.68;99073.44;4845066;29;20136;-76
2021/07/14 07:06:54;;;;;;;4.20;2.15;;;;;;;27.74;25.94;99076.78;4860289;29;20132;-74
2021/07/14 07:09:21;;;;;;;5.18;1.80;;;;;;;27.23;25.12;99065.47;4814102;29;20049;-75
2021/07/14 07:11:47;;;;;;;2.20;1.85;;;;;;;26.86;26.00;99076.59;4844536;29;20049;-76
2021/07/14 07:14:13;;;;;;;7.25;2.30;;;;;;;26.74;26.43;99067.50;4844714;29;20501;-75
2021/07/14 07:16:39;;;;;;;4.38;2.03;;;;;;;26.47;26.43;99067.03;4828974;29;20087;-76
2021/07/14 07:19:05;;;;;;;4.95;1.90;;;;;;;26.39;26.42;99062.69;4829555;29;20049;-76
2021/07/14 07:21:32;;;;;;;4.85;1.92;;;;;;;26.63;25.32;99073.81;4844456;29;20557;-75
2021/07/14 07:23:58;;;;;;;2.33;1.63;;;;;;;26.65;25.15;99066.16;4844798;29;20056;-79
2021/07/14 07:26:26;;;;;;;4.05;1.92;;;;;;;26.66;25.31;99087.00;4830109;29;20061;-75
2021/07/14 07:28:58;;;;;;;4.72;2.00;;;;;;;26.98;25.37;99081.28;4861150;29;20113;-75
2021/07/14 07:31:25;;;;;;;2.20;2.00;;;;;;;27.09;25.37;99094.19;4845670;29;20057;-76
2021/07/14 07:33:51;;;;;;;3.65;2.10;;;;;;;27.12;25.92;99082.75;4875489;29;20053;-77
2021/07/14 07:36:17;;;;;;;5.40;1.90;;;;;;;27.63;25.49;99078.47;4829377;29;20077;-75
2021/07/14 07:38:43;;;;;;;3.38;1.88;;;;;;;27.88;24.61;99083.72;4859872;29;20105;-75
2021/07/14 07:41:10;;;;;;;1.80;1.70;;;;;;;27.53;24.75;99078.22;4829655;29;20118;-77
2021/07/14 07:43:36;;;;;;;3.55;2.10;;;;;;;27.07;24.88;99068.88;4829548;29;20101;-76
2021/07/14 07:46:02;;;;;;;5.25;2.40;;;;;;;26.79;25.15;99069.53;4859948;29;20442;-76
2021/07/14 07:48:27;;;;;;;5.07;2.33;;;;;;;26.76;24.98;99083.72;4860698;29;20060;-75
2021/07/14 07:50:54;;;;;;;2.95;2.45;;;;;;;26.98;25.22;99075.78;4859654;29;20041;-78
2021/07/14 07:53:20;;;;;;;3.55;2.10;;;;;;;27.32;24.61;99074.19;4838780;29;20041;-77
2021/07/14 07:55:47;;;;;;;2.13;1.85;;;;;;;27.73;24.07;99075.13;4816768;29;20045;-76
2021/07/14 07:58:14;;;;;;;4.45;1.85;;;;;;;27.49;24.67;99072.38;4845011;29;20394;-76
2021/07/14 08:00:40;;;;;;;2.67;1.95;;;;;;;26.94;25.30;99083.66;4829158;29;20051;-77
2021/07/14 08:03:05;;;;;;;4.47;1.70;;;;;;;26.82;25.73;99067.16;4829149;29;20045;-76
2021/07/14 08:05:32;;;;;;;2.50;1.85;;;;;;;27.09;25.01;99080.47;4843393;29;20057;-75
2021/07/14 08:07:57;;;;;;;5.20;2.28;;;;;;;27.42;24.64;99079.91;4813824;29;20045;-76
2021/07/14 08:10:23;;;;;;;2.92;1.92;;;;;;;27.46;24.37;99077.53;4859445;29;20046;-75
2021/07/14 08:12:50;;;;;;;2.90;2.03;;;;;;;27.38;24.40;99067.72;4859362;29;20053;-76
2021/07/14 08:15:17;;;;;;;6.22;1.92;;;;;;;27.48;24.38;99078.13;4828932;29;20094;-76
2021/07/14 08:17:43;;;;;;;4.13;2.30;;;;;;;27.74;24.52;99072.16;4858587;29;20082;-76
2021/07/14 08:20:10;;;;;;;2.60;1.83;;;;;;;27.42;24.81;99062.59;4842036;29;20049;-76
2021/07/14 08:22:35;;;;;;;2.58;1.95;;;;;;;27.20;24.67;99065.94;4864490;29;20053;-79
2021/07/14 08:25:03;;;;;;;4.20;2.00;;;;;;;27.43;24.81;99067.03;4813497;29;20114;-76
2021/07/14 08:27:29;;;;;;;1.92;1.70;;;;;;;27.53;24.71;99065.34;4858863;29;20045;-76
2021/07/14 08:29:59;;;;;;;4.10;2.20;;;;;;;27.66;24.33;99066.16;4858826;29;20075;-76
2021/07/14 08:32:28;;;;;;;5.00;1.77;;;;;;;27.59;24.08;99055.31;4844065;29;20049;-75
2021/07/14 08:34:55;;;;;;;2.58;1.83;;;;;;;27.69;24.51;99052.78;4843190;29;20136;-78
2021/07/14 08:37:22;;;;;;;2.47;1.80;;;;;;;27.95;24.12;99050.63;4843306;29;20060;-76
2021/07/14 08:39:52;;;;;;;3.55;2.03;;;;;;;28.62;23.63;99050.84;4858077;29;20528;-76
2021/07/14 08:42:18;;;;;;;6.15;2.30;;;;;;;28.74;23.32;99037.06;4828597;29;20049;-75
2021/07/14 08:44:45;;;;;;;2.53;1.83;;;;;;;28.88;23.55;99035.63;4844167;29;20053;-76
2021/07/14 08:47:11;;;;;;;8.88;2.42;;;;;;;28.85;23.11;99033.41;4813535;29;20524;-75
2021/07/14 08:49:45;;;;;;;5.07;1.90;;;;;;;28.76;23.49;99054.13;4829105;29;20050;-75
2021/07/14 08:52:12;;;;;;;2.25;2.08;;;;;;;28.64;23.36;99056.94;4844346;29;20053;-75
2021/07/14 08:54:41;;;;;;;3.65;1.90;;;;;;;28.70;23.91;99042.22;4844022;29;20049;-74
2021/07/14 08:57:08;;;;;;;4.20;2.10;;;;;;;28.76;24.05;99041.19;4844020;29;20073;-74
2021/07/14 08:59:34;;;;;;;4.65;2.13;;;;;;;28.36;24.24;99044.03;4843966;29;20052;-75
2021/07/14 09:02:00;;;;;;;8.23;2.35;;;;;;;28.14;25.14;99054.88;4844117;29;20124;-76
2021/07/14 09:04:26;;;;;;;3.45;2.10;;;;;;;28.03;25.21;99053.00;4828911;29;20497;-77
2021/07/14 09:06:52;;;;;;;3.45;2.25;;;;;;;28.22;24.83;99048.97;4813667;29;20056;-77
2021/07/14 09:09:18;;;;;;;3.67;2.10;;;;;;;28.59;24.54;99040.38;4843786;29;20084;-77
2021/07/14 09:11:57;;;;;;;7.93;2.40;;;;;;;29.02;24.24;99033.41;4843295;29;20049;-77
2021/07/14 09:14:29;;;;;;;7.88;3.83;;;;;;;29.06;24.42;99042.00;4829474;29;20072;-78
2021/07/14 09:16:56;;;;;;;6.35;2.67;;;;;;;28.96;24.30;99042.63;4843761;29;20520;-77
2021/07/14 09:19:27;;;;;;;5.15;2.67;;;;;;;28.83;23.72;99037.47;4843668;29;20050;-77
2021/07/14 09:21:53;;;;;;;3.67;2.30;;;;;;;29.18;23.33;99038.06;4828410;29;20117;-77
2021/07/14 09:24:33;;;;;;;6.53;2.50;;;;;;;29.49;22.80;99031.13;4812413;29;20110;-78
2021/07/14 09:27:01;;;;;;;3.60;2.15;;;;;;;29.68;22.89;99037.19;4843815;29;20057;-76
2021/07/14 09:29:27;;;;;;;2.95;2.00;;;;;;;29.68;22.85;99031.69;4858975;29;20057;-78
2021/07/14 09:31:54;;;;;;;9.68;2.33;;;;;;;29.15;23.50;99033.09;4844141;29;20082;-77
2021/07/14 09:34:39;;;;;;;2.45;2.10;;;;;;;28.75;24.10;99038.72;4832216;29;20074;-77
2021/07/14 09:37:05;;;;;;;2.33;2.00;;;;;;;28.43;23.74;99047.47;4849961;29;20049;-75
2021/07/14 09:39:33;;;;;;;5.55;2.25;;;;;;;28.57;24.14;99048.00;4862388;29;20409;-78
2021/07/14 09:42:10;;;;;;;4.80;2.37;;;;;;;29.01;23.16;99040.84;4831667;29;20458;-76
2021/07/14 09:44:47;;;;;;;4.40;2.20;;;;;;;29.60;22.46;99031.28;4862142;29;20144;-75
2021/07/14 09:47:15;;;;;;;7.13;2.58;;;;;;;29.98;21.61;99036.75;4862082;29;20758;-76
2021/07/14 09:49:41;;;;;;;;;;;;;;;29.58;21.74;99033.47;4847231;29;20413;-77
2021/07/14 09:52:12;;;;;;;2.35;1.90;;;;;;;29.98;21.70;99036.75;4862820;29;19923;-77
2021/07/14 09:54:38;;;;;;;3.40;1.90;;;;;;;30.24;21.60;99023.31;4830686;29;20509;-76
2021/07/14 09:57:24;;;;;;;4.03;1.90;;;;;;;30.83;21.09;99022.50;4846336;29;20101;-76
2021/07/14 09:59:50;;;;;;;3.78;2.00;;;;;;;31.39;20.94;99031.25;4813209;29;20128;-78
2021/07/14 10:02:16;;;;;;;4.28;2.00;;;;;;;31.48;20.30;99015.81;4818579;29;20444;-76
2021/07/14 10:04:44;;;;;;;2.40;2.08;;;;;;;31.85;20.10;99009.38;4846232;29;20095;-76
2021/07/14 10:07:15;;;;;;;7.88;2.10;;;;;;;31.67;19.99;99017.06;4816719;29;20105;-76
2021/07/14 10:09:42;;;;;;;2.30;2.10;;;;;;;31.50;20.20;99007.28;4830680;29;20057;-76
2021/07/14 10:12:29;;;;;;;5.15;1.85;;;;;;;30.95;20.65;99023.16;4828189;29;20071;-77
2021/07/14 10:14:56;;;;;;;3.08;2.00;;;;;;;30.96;20.31;99019.31;4843821;29;20093;-76
2021/07/14 10:17:36;;;;;;;2.15;1.95;;;;;;;30.53;20.55;99014.75;4812794;29;20430;-76
2021/07/14 10:20:21;;;;;;;5.72;1.80;;;;;;;30.94;20.61;98994.72;4827814;29;20076;-75
2021/07/14 10:23:17;;;;;;;3.90;1.70;;;;;;;31.17;20.15;99004.56;4814034;29;20057;-76
2021/07/14 10:25:45;;;;;;;2.63;1.95;;;;;;;31.52;20.31;99000.41;4842794;29;20054;-76
2021/07/14 10:28:12;;;;;;;2.22;1.80;;;;;;;32.35;19.74;98992.16;4827902;29;20498;-76
2021/07/14 10:30:40;;;;;;;5.72;1.98;;;;;;;31.38;20.29;98999.22;4843617;29;20057;-76
2021/07/14 10:33:10;;;;;;;2.37;1.60;;;;;;;31.45;20.37;98991.53;4842983;29;20125;-76
2021/07/14 10:35:39;;;;;;;3.10;2.25;;;;;;;31.71;19.11;98991.63;4843550;29;20073;-76
2021/07/14 10:38:05;;;;;;;5.07;2.47;;;;;;;32.19;19.60;98992.38;4828857;29;20092;-76
2021/07/14 10:40:31;;;;;;;3.42;2.08;;;;;;;32.71;19.68;98996.94;4843864;29;20055;-78
2021/07/14 10:42:57;;;;;;;7.68;2.30;;;;;;;33.46;19.40;98972.22;4861257;29;20049;-77
2021/07/14 10:45:23;;;;;;;6.00;2.30;;;;;;;34.16;18.65;98986.94;4830238;29;20045;-76
2021/07/14 10:47:50;;;;;;;3.00;2.20;;;;;;;34.37;18.37;98984.84;4816957;29;20112;-77
2021/07/14 10:50:19;;;;;;;4.68;2.33;;;;;;;34.55;18.34;98972.28;4816094;29;20046;-77
2021/07/14 10:52:46;;;;;;;5.00;2.60;;;;;;;34.38;18.01;98994.84;4817781;29;20045;-77
2021/07/14 10:55:22;;;;;;;3.42;2.55;;;;;;;34.27;18.24;98987.72;4817502;29;20076;-78
2021/07/14 10:57:52;;;;;;;3.80;2.30;;;;;;;34.27;18.36;98984.94;4815535;29;20049;-77
2021/07/14 11:00:18;;;;;;;4.18;2.53;;;;;;;33.82;18.94;98981.25;4831384;29;20105;-76
2021/07/14 11:02:51;;;;;;;4.93;2.55;;;;;;;34.05;18.62;98974.25;4830242;29;20049;-75
2021/07/14 11:05:34;;;;;;;8.93;2.67;;;;;;;34.33;18.06;98986.53;4830994;29;20139;-79
2021/07/14 11:08:00;;;;;;;4.85;2.58;;;;;;;34.51;18.08;98987.84;4860810;29;20053;-80
2021/07/14 11:10:35;;;;;;;5.90;2.58;;;;;;;35.22;18.15;98970.59;4830370;29;20056;-78
2021/07/14 11:13:30;;;;;;;5.80;2.60;;;;;;;34.84;18.03;98990.94;4831305;29;20072;-79
2021/07/14 11:15:57;;;;;;;5.90;2.75;;;;;;;34.75;18.11;98990.72;4845854;29;20053;-79
2021/07/14 11:18:29;;;;;;;5.45;2.58;;;;;;;34.35;18.21;99000.97;4845800;29;20053;-83
2021/07/14 11:20:56;;;;;;;5.30;2.92;;;;;;;33.81;18.78;98987.91;4860912;29;20166;-80
2021/07/14 11:23:25;;;;;;;5.68;2.97;;;;;;;34.48;18.78;98978.13;4846159;29;20053;-79
2021/07/14 11:25:52;;;;;;;5.60;2.60;;;;;;;35.35;17.51;98980.16;4830714;29;20061;-77
2021/07/14 11:28:25;;;;;;;6.05;2.60;;;;;;;34.87;17.80;98976.44;4846234;29;20049;-80
2021/07/14 11:30:52;;;;;;;4.72;2.58;;;;;;;34.79;17.71;98984.31;4815244;29;20199;-79
2021/07/14 11:33:43;;;;;;;8.40;3.20;;;;;;;35.20;17.47;98978.38;4844629;29;20189;-78
2021/07/14 11:36:10;;;;;;;7.20;2.30;;;;;;;35.28;16.94;98971.34;4830046;29;20142;-78
2021/07/14 11:38:54;;;;;;;6.80;2.50;;;;;;;35.41;16.61;98984.56;4861430;29;20505;-79
2021/07/14 11:41:25;;;;;;;3.20;2.30;;;;;;;35.23;16.48;98982.53;4830202;29;20132;-81
2021/07/14 11:43:55;;;;;;;4.07;2.28;;;;;;;34.70;17.01;98974.09;4844594;29;20056;-82